• Member Statistics

    16,251
    Total Members
    7,904
    Most Online
    Mindlesssheep
    Newest Member
    Mindlesssheep
    Joined
Sign in to follow this  
Baroclinic Zone

January 26-28 Blizzard Observations/Nowcast

Recommended Posts

SPECI KTAN 270502Z AUTO 03012G35KT 360V070 1/4SM +SN FZFG VV005 M02/M03 A2968 RMK AO2 P0001 T10171028

SPECI KTAN 270515Z AUTO 03013G25KT 010V070 1/4SM +SN FZFG VV004 M02/M03 A2965 RMK AO2 P0003 T10171028

METAR KTAN 270552Z AUTO 01018G32KT 1/4SM +SN FZFG VV003 M02/M03 A2962 RMK AO2 PK WND 04040/0536 SLP031 P0009 60029 T10171028 11011 21017 58059

Share this post


Link to post
Share on other sites

wxniss fwiw, and I am not a fan of the HRRR...it kind of falls apart in the next few hours ala the RGEM and RPM.  Toaster bath for some.

 

 

Latest RAP, on the other hand, is a weenie's dream though...we'll see how this shakes out.  Got that blizzard haze out right now. 

Share this post


Link to post
Share on other sites

Or maybe not, BOS only reported 2.3 as of midnight and that's blatantly wrong. Guess I'm going to have to guestimate.

 

Definitely around 4 by now.

Share this post


Link to post
Share on other sites

Western Areas should worry

Euro just sent NYC crowd jumping

.3 QPF thru 15Z tomorrow there (per thread)

Well Done Clinch

yup, thought nyc would do better. Nice cweat. I don't mind though. New euro is even better here.

Share this post


Link to post
Share on other sites

Join the conversation

You can post now and register later. If you have an account, sign in now to post with your account.

Guest
Reply to this topic...

×   Pasted as rich text.   Paste as plain text instead

  Only 75 emoji are allowed.

×   Your link has been automatically embedded.   Display as a link instead

×   Your previous content has been restored.   Clear editor

×   You cannot paste images directly. Upload or insert images from URL.

Loading...
Sign in to follow this  

  • Recently Browsing   0 members

    No registered users viewing this page.